sensor_id;sensor_type;location;lat;lon;timestamp;P1;durP1;ratioP1;P2;durP2;ratioP2
24867;SDS011;12941;48.698;9.310;2024-01-30T00:00:16;11.9;;;7.9;;
24867;SDS011;12941;48.698;9.310;2024-01-30T00:01:16;11.9;;;7.9;;
24867;SDS011;12941;48.698;9.310;2024-01-30T00:02:16;11.9;;;7.9;;
24867;SDS011;12941;48.698;9.310;2024-01-30T00:03:21;11.9;;;7.9;;
24867;SDS011;12941;48.698;9.310;2024-01-30T00:04:21;14.4;;;8.1;;
24867;SDS011;12941;48.698;9.310;2024-01-30T00:05:21;14.4;;;8.1;;
24867;SDS011;12941;48.698;9.310;2024-01-30T00:06:26;14.4;;;8.1;;
24867;SDS011;12941;48.698;9.310;2024-01-30T00:07:31;14.4;;;8.1;;
24867;SDS011;12941;48.698;9.310;2024-01-30T00:08:31;14.4;;;8.1;;
24867;SDS011;12941;48.698;9.310;2024-01-30T00:09:37;11.2;;;7;;
24867;SDS011;12941;48.698;9.310;2024-01-30T00:10:36;11.2;;;7;;
24867;SDS011;12941;48.698;9.310;2024-01-30T00:11:36;11.2;;;7;;
24867;SDS011;12941;48.698;9.310;2024-01-30T00:12:41;11.2;;;7;;
24867;SDS011;12941;48.698;9.310;2024-01-30T00:13:41;11.2;;;7;;
24867;SDS011;12941;48.698;9.310;2024-01-30T00:14:46;9.8;;;6.6;;
24867;SDS011;12941;48.698;9.310;2024-01-30T00:15:46;9.8;;;6.6;;
24867;SDS011;12941;48.698;9.310;2024-01-30T00:16:51;9.8;;;6.6;;
24867;SDS011;12941;48.698;9.310;2024-01-30T00:17:51;9.8;;;6.6;;
24867;SDS011;12941;48.698;9.310;2024-01-30T00:18:57;9.8;;;6.6;;
24867;SDS011;12941;48.698;9.310;2024-01-30T00:20:01;10.4;;;6.6;;
24867;SDS011;12941;48.698;9.310;2024-01-30T00:21:01;10.4;;;6.6;;
24867;SDS011;12941;48.698;9.310;2024-01-30T00:22:01;10.4;;;6.6;;
24867;SDS011;12941;48.698;9.310;2024-01-30T00:23:06;10.4;;;6.6;;
24867;SDS011;12941;48.698;9.310;2024-01-30T00:24:11;10.2;;;6.8;;
24867;SDS011;12941;48.698;9.310;2024-01-30T00:25:11;10.3;;;6.8;;
24867;SDS011;12941;48.698;9.310;2024-01-30T00:26:11;10.3;;;6.8;;
24867;SDS011;12941;48.698;9.310;2024-01-30T00:27:16;10.3;;;6.8;;
24867;SDS011;12941;48.698;9.310;2024-01-30T00:28:16;10.3;;;6.8;;
24867;SDS011;12941;48.698;9.310;2024-01-30T00:29:21;11.9;;;7.3;;
24867;SDS011;12941;48.698;9.310;2024-01-30T00:30:26;11.9;;;7.3;;
24867;SDS011;12941;48.698;9.310;2024-01-30T00:31:26;11.9;;;7.3;;
24867;SDS011;12941;48.698;9.310;2024-01-30T00:32:31;11.9;;;7.3;;
24867;SDS011;12941;48.698;9.310;2024-01-30T00:33:32;11.9;;;7.3;;
24867;SDS011;12941;48.698;9.310;2024-01-30T00:34:36;10.1;;;7.2;;
24867;SDS011;12941;48.698;9.310;2024-01-30T00:35:41;10.1;;;7.2;;
24867;SDS011;12941;48.698;9.310;2024-01-30T00:36:47;10.1;;;7.2;;
24867;SDS011;12941;48.698;9.310;2024-01-30T00:37:51;10.1;;;7.2;;
24867;SDS011;12941;48.698;9.310;2024-01-30T00:38:51;10.1;;;7.2;;
24867;SDS011;12941;48.698;9.310;2024-01-30T00:39:51;12.9;;;7.6;;
24867;SDS011;12941;48.698;9.310;2024-01-30T00:40:56;12.9;;;7.6;;
24867;SDS011;12941;48.698;9.310;2024-01-30T00:41:56;12.9;;;7.6;;
24867;SDS011;12941;48.698;9.310;2024-01-30T00:42:56;12.9;;;7.6;;
24867;SDS011;12941;48.698;9.310;2024-01-30T00:44:01;12.9;;;7.6;;
24867;SDS011;12941;48.698;9.310;2024-01-30T00:45:11;11.6;;;7.8;;
24867;SDS011;12941;48.698;9.310;2024-01-30T00:46:06;11.6;;;7.8;;
24867;SDS011;12941;48.698;9.310;2024-01-30T00:47:07;11.6;;;7.8;;
24867;SDS011;12941;48.698;9.310;2024-01-30T00:48:11;11.6;;;7.8;;
24867;SDS011;12941;48.698;9.310;2024-01-30T00:49:12;12.2;;;7.8;;
24867;SDS011;12941;48.698;9.310;2024-01-30T00:50:16;12.3;;;7.8;;
24867;SDS011;12941;48.698;9.310;2024-01-30T00:51:21;12.3;;;7.8;;
24867;SDS011;12941;48.698;9.310;2024-01-30T00:52:22;12.3;;;7.8;;
24867;SDS011;12941;48.698;9.310;2024-01-30T00:53:26;12.3;;;7.8;;
24867;SDS011;12941;48.698;9.310;2024-01-30T00:54:31;12.7;;;7.4;;
24867;SDS011;12941;48.698;9.310;2024-01-30T00:55:37;12.7;;;7.4;;
24867;SDS011;12941;48.698;9.310;2024-01-30T00:56:41;12.7;;;7.4;;
24867;SDS011;12941;48.698;9.310;2024-01-30T00:57:42;12.7;;;7.4;;
24867;SDS011;12941;48.698;9.310;2024-01-30T00:58:47;12.7;;;7.4;;
24867;SDS011;12941;48.698;9.310;2024-01-30T00:59:47;10;;;7.2;;
24867;SDS011;12941;48.698;9.310;2024-01-30T01:00:47;10;;;7.2;;
24867;SDS011;12941;48.698;9.310;2024-01-30T01:01:47;10;;;7.2;;
24867;SDS011;12941;48.698;9.310;2024-01-30T01:02:52;10;;;7.2;;
24867;SDS011;12941;48.698;9.310;2024-01-30T01:03:52;10;;;7.2;;
24867;SDS011;12941;48.698;9.310;2024-01-30T01:04:57;12;;;7.7;;
24867;SDS011;12941;48.698;9.310;2024-01-30T01:06:02;12;;;7.7;;
24867;SDS011;12941;48.698;9.310;2024-01-30T01:07:02;12;;;7.7;;
24867;SDS011;12941;48.698;9.310;2024-01-30T01:08:02;12;;;7.7;;
24867;SDS011;12941;48.698;9.310;2024-01-30T01:09:07;12;;;7.7;;
24867;SDS011;12941;48.698;9.310;2024-01-30T01:10:07;14.2;;;8.1;;
24867;SDS011;12941;48.698;9.310;2024-01-30T01:11:07;14.2;;;8.1;;
24867;SDS011;12941;48.698;9.310;2024-01-30T01:12:12;14.2;;;8.1;;
24867;SDS011;12941;48.698;9.310;2024-01-30T01:13:17;14.2;;;8.1;;
24867;SDS011;12941;48.698;9.310;2024-01-30T01:14:17;11.4;;;7.8;;
24867;SDS011;12941;48.698;9.310;2024-01-30T01:15:22;11.4;;;7.8;;
24867;SDS011;12941;48.698;9.310;2024-01-30T01:16:27;11.4;;;7.8;;
24867;SDS011;12941;48.698;9.310;2024-01-30T01:17:32;11.4;;;7.8;;
24867;SDS011;12941;48.698;9.310;2024-01-30T01:18:32;11.4;;;7.8;;
24867;SDS011;12941;48.698;9.310;2024-01-30T01:19:37;12.5;;;8.1;;
24867;SDS011;12941;48.698;9.310;2024-01-30T01:20:42;12.5;;;8.1;;
24867;SDS011;12941;48.698;9.310;2024-01-30T01:21:47;12.5;;;8.1;;
24867;SDS011;12941;48.698;9.310;2024-01-30T01:22:47;12.5;;;8.1;;
24867;SDS011;12941;48.698;9.310;2024-01-30T01:23:47;12.5;;;8.1;;
24867;SDS011;12941;48.698;9.310;2024-01-30T01:24:52;11.4;;;7.6;;
24867;SDS011;12941;48.698;9.310;2024-01-30T01:25:57;11.4;;;7.6;;
24867;SDS011;12941;48.698;9.310;2024-01-30T01:27:02;11.4;;;7.6;;
24867;SDS011;12941;48.698;9.310;2024-01-30T01:28:07;11.4;;;7.6;;
24867;SDS011;12941;48.698;9.310;2024-01-30T01:29:12;10.1;;;7.8;;
24867;SDS011;12941;48.698;9.310;2024-01-30T01:30:17;9.9;;;7.8;;
24867;SDS011;12941;48.698;9.310;2024-01-30T01:31:17;9.9;;;7.8;;
24867;SDS011;12941;48.698;9.310;2024-01-30T01:32:22;9.9;;;7.8;;
24867;SDS011;12941;48.698;9.310;2024-01-30T01:33:22;9.9;;;7.8;;
24867;SDS011;12941;48.698;9.310;2024-01-30T01:34:27;11.4;;;7;;
24867;SDS011;12941;48.698;9.310;2024-01-30T01:35:27;11.4;;;7;;
24867;SDS011;12941;48.698;9.310;2024-01-30T01:36:32;11.4;;;7;;
24867;SDS011;12941;48.698;9.310;2024-01-30T01:37:32;11.4;;;7;;
24867;SDS011;12941;48.698;9.310;2024-01-30T01:38:37;11.4;;;7;;
24867;SDS011;12941;48.698;9.310;2024-01-30T01:39:37;8.4;;;5.9;;
24867;SDS011;12941;48.698;9.310;2024-01-30T01:40:37;8.4;;;5.9;;
24867;SDS011;12941;48.698;9.310;2024-01-30T01:41:42;8.4;;;5.9;;
24867;SDS011;12941;48.698;9.310;2024-01-30T01:42:47;8.4;;;5.9;;
24867;SDS011;12941;48.698;9.310;2024-01-30T01:43:52;8.4;;;5.9;;
24867;SDS011;12941;48.698;9.310;2024-01-30T01:44:52;9.1;;;7;;
24867;SDS011;12941;48.698;9.310;2024-01-30T01:45:57;9.1;;;7;;
24867;SDS011;12941;48.698;9.310;2024-01-30T01:46:57;9.1;;;7;;
24867;SDS011;12941;48.698;9.310;2024-01-30T01:48:02;9.1;;;7;;
24867;SDS011;12941;48.698;9.310;2024-01-30T01:49:07;9.1;;;7;;
24867;SDS011;12941;48.698;9.310;2024-01-30T01:50:12;11.3;;;7.3;;
24867;SDS011;12941;48.698;9.310;2024-01-30T01:51:12;11.3;;;7.3;;
24867;SDS011;12941;48.698;9.310;2024-01-30T01:52:12;11.3;;;7.3;;
24867;SDS011;12941;48.698;9.310;2024-01-30T01:53:17;11.3;;;7.3;;
24867;SDS011;12941;48.698;9.310;2024-01-30T01:54:17;11.9;;;7.4;;
24867;SDS011;12941;48.698;9.310;2024-01-30T01:55:22;11.9;;;7.4;;
24867;SDS011;12941;48.698;9.310;2024-01-30T01:56:27;11.9;;;7.4;;
24867;SDS011;12941;48.698;9.310;2024-01-30T01:57:27;11.9;;;7.4;;
24867;SDS011;12941;48.698;9.310;2024-01-30T01:58:32;11.9;;;7.4;;
24867;SDS011;12941;48.698;9.310;2024-01-30T01:59:32;10.2;;;7.2;;
24867;SDS011;12941;48.698;9.310;2024-01-30T02:00:37;10.2;;;7.2;;
24867;SDS011;12941;48.698;9.310;2024-01-30T02:01:37;10.2;;;7.2;;
24867;SDS011;12941;48.698;9.310;2024-01-30T02:02:42;10.2;;;7.2;;
24867;SDS011;12941;48.698;9.310;2024-01-30T02:03:42;10.2;;;7.2;;
24867;SDS011;12941;48.698;9.310;2024-01-30T02:04:42;10.6;;;7.5;;
24867;SDS011;12941;48.698;9.310;2024-01-30T02:05:42;10.6;;;7.5;;
24867;SDS011;12941;48.698;9.310;2024-01-30T02:06:47;10.6;;;7.5;;
24867;SDS011;12941;48.698;9.310;2024-01-30T02:07:52;10.6;;;7.5;;
24867;SDS011;12941;48.698;9.310;2024-01-30T02:08:57;10.6;;;7.5;;
24867;SDS011;12941;48.698;9.310;2024-01-30T02:09:57;12.2;;;8.2;;
24867;SDS011;12941;48.698;9.310;2024-01-30T02:10:57;12.2;;;8.2;;
24867;SDS011;12941;48.698;9.310;2024-01-30T02:12:02;12.2;;;8.2;;
24867;SDS011;12941;48.698;9.310;2024-01-30T02:13:02;12.2;;;8.2;;
24867;SDS011;12941;48.698;9.310;2024-01-30T02:14:07;12.2;;;8.2;;
24867;SDS011;12941;48.698;9.310;2024-01-30T02:15:07;10.8;;;7.7;;
24867;SDS011;12941;48.698;9.310;2024-01-30T02:16:12;10.8;;;7.7;;
24867;SDS011;12941;48.698;9.310;2024-01-30T02:17:12;10.8;;;7.7;;
24867;SDS011;12941;48.698;9.310;2024-01-30T02:18:18;10.8;;;7.7;;
24867;SDS011;12941;48.698;9.310;2024-01-30T02:19:17;10.8;;;7.6;;
24867;SDS011;12941;48.698;9.310;2024-01-30T02:20:22;10.8;;;7.6;;
24867;SDS011;12941;48.698;9.310;2024-01-30T02:21:27;10.8;;;7.6;;
24867;SDS011;12941;48.698;9.310;2024-01-30T02:22:27;10.8;;;7.6;;
24867;SDS011;12941;48.698;9.310;2024-01-30T02:23:32;10.8;;;7.6;;
24867;SDS011;12941;48.698;9.310;2024-01-30T02:24:37;11.8;;;7.8;;
24867;SDS011;12941;48.698;9.310;2024-01-30T02:25:38;11.8;;;7.8;;
24867;SDS011;12941;48.698;9.310;2024-01-30T02:26:42;11.8;;;7.8;;
24867;SDS011;12941;48.698;9.310;2024-01-30T02:27:47;11.8;;;7.8;;
24867;SDS011;12941;48.698;9.310;2024-01-30T02:28:52;11.8;;;7.8;;
24867;SDS011;12941;48.698;9.310;2024-01-30T02:29:52;13.6;;;7.8;;
24867;SDS011;12941;48.698;9.310;2024-01-30T02:30:57;13.6;;;7.8;;
24867;SDS011;12941;48.698;9.310;2024-01-30T02:31:57;13.6;;;7.8;;
24867;SDS011;12941;48.698;9.310;2024-01-30T02:33:02;13.6;;;7.8;;
24867;SDS011;12941;48.698;9.310;2024-01-30T02:34:07;13.6;;;7.8;;
24867;SDS011;12941;48.698;9.310;2024-01-30T02:35:07;11.9;;;7.4;;
24867;SDS011;12941;48.698;9.310;2024-01-30T02:36:12;11.9;;;7.4;;
24867;SDS011;12941;48.698;9.310;2024-01-30T02:37:14;11.9;;;7.4;;
24867;SDS011;12941;48.698;9.310;2024-01-30T02:38:17;11.9;;;7.4;;
24867;SDS011;12941;48.698;9.310;2024-01-30T02:39:17;12.5;;;7.6;;
24867;SDS011;12941;48.698;9.310;2024-01-30T02:40:22;12.5;;;7.6;;
24867;SDS011;12941;48.698;9.310;2024-01-30T02:41:27;12.5;;;7.6;;
24867;SDS011;12941;48.698;9.310;2024-01-30T02:42:27;12.5;;;7.6;;
24867;SDS011;12941;48.698;9.310;2024-01-30T02:43:27;12.5;;;7.6;;
24867;SDS011;12941;48.698;9.310;2024-01-30T02:44:32;13.2;;;7.8;;
24867;SDS011;12941;48.698;9.310;2024-01-30T02:45:32;13.2;;;7.8;;
24867;SDS011;12941;48.698;9.310;2024-01-30T02:46:32;13.2;;;7.8;;
24867;SDS011;12941;48.698;9.310;2024-01-30T02:47:38;13.2;;;7.8;;
24867;SDS011;12941;48.698;9.310;2024-01-30T02:48:37;13.2;;;7.8;;
24867;SDS011;12941;48.698;9.310;2024-01-30T02:49:37;11;;;8.6;;
24867;SDS011;12941;48.698;9.310;2024-01-30T02:50:42;11;;;8.6;;
24867;SDS011;12941;48.698;9.310;2024-01-30T02:51:42;11;;;8.6;;
24867;SDS011;12941;48.698;9.310;2024-01-30T02:52:47;11;;;8.6;;
24867;SDS011;12941;48.698;9.310;2024-01-30T02:53:52;11;;;8.6;;
24867;SDS011;12941;48.698;9.310;2024-01-30T02:54:53;11.2;;;7.7;;
24867;SDS011;12941;48.698;9.310;2024-01-30T02:55:57;11.2;;;7.7;;
24867;SDS011;12941;48.698;9.310;2024-01-30T02:57:02;11.2;;;7.7;;
24867;SDS011;12941;48.698;9.310;2024-01-30T02:58:07;11.2;;;7.7;;
24867;SDS011;12941;48.698;9.310;2024-01-30T02:59:12;11.1;;;7.2;;
24867;SDS011;12941;48.698;9.310;2024-01-30T03:00:13;11.1;;;7.2;;
24867;SDS011;12941;48.698;9.310;2024-01-30T03:01:12;11.1;;;7.2;;
24867;SDS011;12941;48.698;9.310;2024-01-30T03:02:17;11.1;;;7.2;;
24867;SDS011;12941;48.698;9.310;2024-01-30T03:03:17;11.1;;;7.2;;
24867;SDS011;12941;48.698;9.310;2024-01-30T03:04:22;11.6;;;7.6;;
24867;SDS011;12941;48.698;9.310;2024-01-30T03:05:27;11.6;;;7.6;;
24867;SDS011;12941;48.698;9.310;2024-01-30T03:06:27;11.6;;;7.6;;
24867;SDS011;12941;48.698;9.310;2024-01-30T03:07:33;11.6;;;7.6;;
24867;SDS011;12941;48.698;9.310;2024-01-30T03:08:33;11.6;;;7.6;;
24867;SDS011;12941;48.698;9.310;2024-01-30T03:09:37;12.4;;;7.3;;
24867;SDS011;12941;48.698;9.310;2024-01-30T03:10:37;12.4;;;7.3;;
24867;SDS011;12941;48.698;9.310;2024-01-30T03:11:42;12.4;;;7.3;;
24867;SDS011;12941;48.698;9.310;2024-01-30T03:12:47;12.4;;;7.3;;
24867;SDS011;12941;48.698;9.310;2024-01-30T03:13:47;12.4;;;7.3;;
24867;SDS011;12941;48.698;9.310;2024-01-30T03:14:52;12.6;;;7.6;;
24867;SDS011;12941;48.698;9.310;2024-01-30T03:15:52;12.6;;;7.6;;
24867;SDS011;12941;48.698;9.310;2024-01-30T03:16:52;12.6;;;7.6;;
24867;SDS011;12941;48.698;9.310;2024-01-30T03:17:53;12.6;;;7.6;;
24867;SDS011;12941;48.698;9.310;2024-01-30T03:18:58;12.6;;;7.6;;
24867;SDS011;12941;48.698;9.310;2024-01-30T03:19:58;12.2;;;7.7;;
24867;SDS011;12941;48.698;9.310;2024-01-30T03:20:58;12.2;;;7.7;;
24867;SDS011;12941;48.698;9.310;2024-01-30T03:22:03;12.2;;;7.7;;
24867;SDS011;12941;48.698;9.310;2024-01-30T03:23:08;12.2;;;7.7;;
24867;SDS011;12941;48.698;9.310;2024-01-30T03:24:08;12.2;;;7.7;;
24867;SDS011;12941;48.698;9.310;2024-01-30T03:25:13;10.5;;;7.2;;
24867;SDS011;12941;48.698;9.310;2024-01-30T03:26:13;10.5;;;7.2;;
24867;SDS011;12941;48.698;9.310;2024-01-30T03:27:13;10.5;;;7.2;;
24867;SDS011;12941;48.698;9.310;2024-01-30T03:28:18;10.5;;;7.2;;
24867;SDS011;12941;48.698;9.310;2024-01-30T03:29:23;9.7;;;7.7;;
24867;SDS011;12941;48.698;9.310;2024-01-30T03:30:28;9.7;;;7.7;;
24867;SDS011;12941;48.698;9.310;2024-01-30T03:31:28;9.7;;;7.7;;
24867;SDS011;12941;48.698;9.310;2024-01-30T03:32:28;9.7;;;7.7;;
24867;SDS011;12941;48.698;9.310;2024-01-30T03:33:33;9.7;;;7.7;;
24867;SDS011;12941;48.698;9.310;2024-01-30T03:34:33;10.2;;;7.3;;
24867;SDS011;12941;48.698;9.310;2024-01-30T03:35:38;10.2;;;7.3;;
24867;SDS011;12941;48.698;9.310;2024-01-30T03:36:38;10.2;;;7.3;;
24867;SDS011;12941;48.698;9.310;2024-01-30T03:37:43;10.2;;;7.3;;
24867;SDS011;12941;48.698;9.310;2024-01-30T03:38:48;10.2;;;7.3;;
24867;SDS011;12941;48.698;9.310;2024-01-30T03:39:48;12.7;;;8.2;;
24867;SDS011;12941;48.698;9.310;2024-01-30T03:40:48;12.7;;;8.2;;
24867;SDS011;12941;48.698;9.310;2024-01-30T03:41:48;12.7;;;8.2;;
24867;SDS011;12941;48.698;9.310;2024-01-30T03:42:48;12.7;;;8.2;;
24867;SDS011;12941;48.698;9.310;2024-01-30T03:43:53;12.7;;;8.2;;
24867;SDS011;12941;48.698;9.310;2024-01-30T03:44:53;12.7;;;8.4;;
24867;SDS011;12941;48.698;9.310;2024-01-30T03:45:53;12.7;;;8.4;;
24867;SDS011;12941;48.698;9.310;2024-01-30T03:46:53;12.7;;;8.4;;
24867;SDS011;12941;48.698;9.310;2024-01-30T03:47:53;12.7;;;8.4;;
24867;SDS011;12941;48.698;9.310;2024-01-30T03:48:53;12.7;;;8.4;;
24867;SDS011;12941;48.698;9.310;2024-01-30T03:49:53;13;;;8.1;;
24867;SDS011;12941;48.698;9.310;2024-01-30T03:50:58;13;;;8.1;;
24867;SDS011;12941;48.698;9.310;2024-01-30T03:51:58;13;;;8.1;;
24867;SDS011;12941;48.698;9.310;2024-01-30T03:53:03;13;;;8.1;;
24867;SDS011;12941;48.698;9.310;2024-01-30T03:54:09;13;;;8.1;;
24867;SDS011;12941;48.698;9.310;2024-01-30T03:55:13;13.3;;;8.6;;
24867;SDS011;12941;48.698;9.310;2024-01-30T03:56:18;13.3;;;8.6;;
24867;SDS011;12941;48.698;9.310;2024-01-30T03:57:18;13.3;;;8.6;;
24867;SDS011;12941;48.698;9.310;2024-01-30T03:58:23;13.3;;;8.6;;
24867;SDS011;12941;48.698;9.310;2024-01-30T03:59:23;14.9;;;8;;
24867;SDS011;12941;48.698;9.310;2024-01-30T04:00:28;14.9;;;8;;
24867;SDS011;12941;48.698;9.310;2024-01-30T04:01:28;14.9;;;8;;
24867;SDS011;12941;48.698;9.310;2024-01-30T04:02:28;14.9;;;8;;
24867;SDS011;12941;48.698;9.310;2024-01-30T04:03:33;14.9;;;8;;
24867;SDS011;12941;48.698;9.310;2024-01-30T04:04:33;12.5;;;8.6;;
24867;SDS011;12941;48.698;9.310;2024-01-30T04:05:38;12.5;;;8.6;;
24867;SDS011;12941;48.698;9.310;2024-01-30T04:06:38;12.5;;;8.6;;
24867;SDS011;12941;48.698;9.310;2024-01-30T04:07:38;12.5;;;8.6;;
24867;SDS011;12941;48.698;9.310;2024-01-30T04:08:38;12.5;;;8.6;;
24867;SDS011;12941;48.698;9.310;2024-01-30T04:09:38;11.5;;;7.9;;
24867;SDS011;12941;48.698;9.310;2024-01-30T04:10:38;11.5;;;7.9;;
24867;SDS011;12941;48.698;9.310;2024-01-30T04:11:43;11.5;;;7.9;;
24867;SDS011;12941;48.698;9.310;2024-01-30T04:12:43;11.5;;;7.9;;
24867;SDS011;12941;48.698;9.310;2024-01-30T04:13:48;11.5;;;7.9;;
24867;SDS011;12941;48.698;9.310;2024-01-30T04:14:53;11;;;7.7;;
24867;SDS011;12941;48.698;9.310;2024-01-30T04:15:53;11;;;7.7;;
24867;SDS011;12941;48.698;9.310;2024-01-30T04:16:53;11;;;7.7;;
24867;SDS011;12941;48.698;9.310;2024-01-30T04:17:58;11;;;7.7;;
24867;SDS011;12941;48.698;9.310;2024-01-30T04:18:58;11;;;7.7;;
24867;SDS011;12941;48.698;9.310;2024-01-30T04:19:58;12.3;;;7.7;;
24867;SDS011;12941;48.698;9.310;2024-01-30T04:20:58;12.3;;;7.7;;
24867;SDS011;12941;48.698;9.310;2024-01-30T04:22:03;12.3;;;7.7;;
24867;SDS011;12941;48.698;9.310;2024-01-30T04:23:08;12.3;;;7.7;;
24867;SDS011;12941;48.698;9.310;2024-01-30T04:24:08;12.3;;;7.7;;
24867;SDS011;12941;48.698;9.310;2024-01-30T04:25:13;12.5;;;7.6;;
24867;SDS011;12941;48.698;9.310;2024-01-30T04:26:13;12.5;;;7.6;;
24867;SDS011;12941;48.698;9.310;2024-01-30T04:27:18;12.5;;;7.6;;
24867;SDS011;12941;48.698;9.310;2024-01-30T04:28:18;12.5;;;7.6;;
24867;SDS011;12941;48.698;9.310;2024-01-30T04:29:18;10.4;;;7.6;;
24867;SDS011;12941;48.698;9.310;2024-01-30T04:30:18;10.4;;;7.6;;
24867;SDS011;12941;48.698;9.310;2024-01-30T04:31:23;10.4;;;7.6;;
24867;SDS011;12941;48.698;9.310;2024-01-30T04:32:28;10.4;;;7.6;;
24867;SDS011;12941;48.698;9.310;2024-01-30T04:33:33;10.4;;;7.6;;
24867;SDS011;12941;48.698;9.310;2024-01-30T04:34:33;10.5;;;7.5;;
24867;SDS011;12941;48.698;9.310;2024-01-30T04:35:38;10.5;;;7.5;;
24867;SDS011;12941;48.698;9.310;2024-01-30T04:36:38;10.5;;;7.5;;
24867;SDS011;12941;48.698;9.310;2024-01-30T04:37:43;10.5;;;7.5;;
24867;SDS011;12941;48.698;9.310;2024-01-30T04:38:43;10.5;;;7.5;;
24867;SDS011;12941;48.698;9.310;2024-01-30T04:39:48;11.6;;;7.5;;
24867;SDS011;12941;48.698;9.310;2024-01-30T04:40:48;11.6;;;7.5;;
24867;SDS011;12941;48.698;9.310;2024-01-30T04:41:48;11.6;;;7.5;;
24867;SDS011;12941;48.698;9.310;2024-01-30T04:42:53;11.6;;;7.5;;
24867;SDS011;12941;48.698;9.310;2024-01-30T04:43:53;11.6;;;7.5;;
24867;SDS011;12941;48.698;9.310;2024-01-30T04:44:58;11.3;;;7.9;;
24867;SDS011;12941;48.698;9.310;2024-01-30T04:46:03;11.3;;;7.9;;
24867;SDS011;12941;48.698;9.310;2024-01-30T04:47:03;11.3;;;7.9;;
24867;SDS011;12941;48.698;9.310;2024-01-30T04:48:08;11.3;;;7.9;;
24867;SDS011;12941;48.698;9.310;2024-01-30T04:49:13;11.7;;;7.7;;
24867;SDS011;12941;48.698;9.310;2024-01-30T04:50:13;11.6;;;7.6;;
24867;SDS011;12941;48.698;9.310;2024-01-30T04:51:13;11.6;;;7.6;;
24867;SDS011;12941;48.698;9.310;2024-01-30T04:52:18;11.6;;;7.6;;
24867;SDS011;12941;48.698;9.310;2024-01-30T04:53:18;11.6;;;7.6;;
24867;SDS011;12941;48.698;9.310;2024-01-30T04:54:23;10.3;;;7.4;;
24867;SDS011;12941;48.698;9.310;2024-01-30T04:55:28;10.3;;;7.4;;
24867;SDS011;12941;48.698;9.310;2024-01-30T04:56:33;10.3;;;7.4;;
24867;SDS011;12941;48.698;9.310;2024-01-30T04:57:33;10.3;;;7.4;;
24867;SDS011;12941;48.698;9.310;2024-01-30T04:58:38;10.3;;;7.4;;
24867;SDS011;12941;48.698;9.310;2024-01-30T04:59:39;9.9;;;7.2;;
24867;SDS011;12941;48.698;9.310;2024-01-30T05:00:43;9.9;;;7.2;;
24867;SDS011;12941;48.698;9.310;2024-01-30T05:01:43;9.9;;;7.2;;
24867;SDS011;12941;48.698;9.310;2024-01-30T05:02:48;9.9;;;7.2;;
24867;SDS011;12941;48.698;9.310;2024-01-30T05:03:48;9.9;;;7.2;;
24867;SDS011;12941;48.698;9.310;2024-01-30T05:04:53;9.2;;;6.9;;
24867;SDS011;12941;48.698;9.310;2024-01-30T05:05:58;9.2;;;6.9;;
24867;SDS011;12941;48.698;9.310;2024-01-30T05:06:58;9.2;;;6.9;;
24867;SDS011;12941;48.698;9.310;2024-01-30T05:07:58;9.2;;;6.9;;
24867;SDS011;12941;48.698;9.310;2024-01-30T05:09:03;9.2;;;6.9;;
24867;SDS011;12941;48.698;9.310;2024-01-30T05:10:09;10.2;;;7.2;;
24867;SDS011;12941;48.698;9.310;2024-01-30T05:11:08;10.2;;;7.2;;
24867;SDS011;12941;48.698;9.310;2024-01-30T05:12:08;10.2;;;7.2;;
24867;SDS011;12941;48.698;9.310;2024-01-30T05:13:09;10.2;;;7.2;;
24867;SDS011;12941;48.698;9.310;2024-01-30T05:14:13;10.3;;;7.5;;
24867;SDS011;12941;48.698;9.310;2024-01-30T05:15:13;10.3;;;7.4;;
24867;SDS011;12941;48.698;9.310;2024-01-30T05:16:13;10.3;;;7.4;;
24867;SDS011;12941;48.698;9.310;2024-01-30T05:17:18;10.3;;;7.4;;
24867;SDS011;12941;48.698;9.310;2024-01-30T05:18:18;10.3;;;7.4;;
24867;SDS011;12941;48.698;9.310;2024-01-30T05:19:18;11.2;;;6.9;;
24867;SDS011;12941;48.698;9.310;2024-01-30T05:20:19;11.2;;;6.9;;
24867;SDS011;12941;48.698;9.310;2024-01-30T05:21:23;11.2;;;6.9;;
24867;SDS011;12941;48.698;9.310;2024-01-30T05:22:28;11.2;;;6.9;;
24867;SDS011;12941;48.698;9.310;2024-01-30T05:23:28;11.2;;;6.9;;
24867;SDS011;12941;48.698;9.310;2024-01-30T05:24:28;10.7;;;7;;
24867;SDS011;12941;48.698;9.310;2024-01-30T05:25:33;10.7;;;7;;
24867;SDS011;12941;48.698;9.310;2024-01-30T05:26:38;10.7;;;7;;
24867;SDS011;12941;48.698;9.310;2024-01-30T05:27:38;10.7;;;7;;
24867;SDS011;12941;48.698;9.310;2024-01-30T05:28:43;10.7;;;7;;
24867;SDS011;12941;48.698;9.310;2024-01-30T05:29:43;10.1;;;6.9;;
24867;SDS011;12941;48.698;9.310;2024-01-30T05:30:43;10.1;;;6.9;;
24867;SDS011;12941;48.698;9.310;2024-01-30T05:31:43;10.1;;;6.9;;
24867;SDS011;12941;48.698;9.310;2024-01-30T05:32:43;10.1;;;6.9;;
24867;SDS011;12941;48.698;9.310;2024-01-30T05:33:48;10.1;;;6.9;;
24867;SDS011;12941;48.698;9.310;2024-01-30T05:34:48;10.6;;;7.1;;
24867;SDS011;12941;48.698;9.310;2024-01-30T05:35:48;10.6;;;7.1;;
24867;SDS011;12941;48.698;9.310;2024-01-30T05:36:53;10.6;;;7.1;;
24867;SDS011;12941;48.698;9.310;2024-01-30T05:37:58;10.6;;;7.1;;
24867;SDS011;12941;48.698;9.310;2024-01-30T05:39:03;10.6;;;7.1;;
24867;SDS011;12941;48.698;9.310;2024-01-30T05:40:04;11.8;;;7.5;;
24867;SDS011;12941;48.698;9.310;2024-01-30T05:41:08;11.8;;;7.5;;
24867;SDS011;12941;48.698;9.310;2024-01-30T05:42:08;11.8;;;7.5;;
24867;SDS011;12941;48.698;9.310;2024-01-30T05:43:13;11.8;;;7.5;;
24867;SDS011;12941;48.698;9.310;2024-01-30T05:44:13;14.5;;;9;;
24867;SDS011;12941;48.698;9.310;2024-01-30T05:45:18;14.5;;;9;;
24867;SDS011;12941;48.698;9.310;2024-01-30T05:46:18;14.5;;;9;;
24867;SDS011;12941;48.698;9.310;2024-01-30T05:47:23;14.5;;;9;;
24867;SDS011;12941;48.698;9.310;2024-01-30T05:48:28;14.5;;;9;;
24867;SDS011;12941;48.698;9.310;2024-01-30T05:49:28;19;;;13.1;;
24867;SDS011;12941;48.698;9.310;2024-01-30T05:50:33;19;;;13.1;;
24867;SDS011;12941;48.698;9.310;2024-01-30T05:51:38;19;;;13.1;;
24867;SDS011;12941;48.698;9.310;2024-01-30T05:52:43;19;;;13.1;;
24867;SDS011;12941;48.698;9.310;2024-01-30T05:53:48;19;;;13.1;;
24867;SDS011;12941;48.698;9.310;2024-01-30T05:54:48;13.4;;;9.3;;
24867;SDS011;12941;48.698;9.310;2024-01-30T05:55:48;13.4;;;9.3;;
24867;SDS011;12941;48.698;9.310;2024-01-30T05:56:53;13.4;;;9.3;;
24867;SDS011;12941;48.698;9.310;2024-01-30T05:57:53;13.4;;;9.3;;
24867;SDS011;12941;48.698;9.310;2024-01-30T05:58:53;13.4;;;9.3;;
24867;SDS011;12941;48.698;9.310;2024-01-30T05:59:54;12.1;;;9.2;;
24867;SDS011;12941;48.698;9.310;2024-01-30T06:00:54;12.1;;;9.2;;
24867;SDS011;12941;48.698;9.310;2024-01-30T06:01:58;12.1;;;9.2;;
24867;SDS011;12941;48.698;9.310;2024-01-30T06:02:58;12.1;;;9.2;;
24867;SDS011;12941;48.698;9.310;2024-01-30T06:04:03;12.1;;;9.2;;
24867;SDS011;12941;48.698;9.310;2024-01-30T06:05:04;11.9;;;8.1;;
24867;SDS011;12941;48.698;9.310;2024-01-30T06:06:09;11.9;;;8.1;;
24867;SDS011;12941;48.698;9.310;2024-01-30T06:07:13;11.9;;;8.1;;
24867;SDS011;12941;48.698;9.310;2024-01-30T06:08:19;11.9;;;8.1;;
24867;SDS011;12941;48.698;9.310;2024-01-30T06:09:19;11.7;;;8;;
24867;SDS011;12941;48.698;9.310;2024-01-30T06:10:24;11.7;;;8;;
24867;SDS011;12941;48.698;9.310;2024-01-30T06:11:29;11.7;;;8;;
24867;SDS011;12941;48.698;9.310;2024-01-30T06:12:34;11.7;;;8;;
24867;SDS011;12941;48.698;9.310;2024-01-30T06:13:34;11.7;;;8;;
24867;SDS011;12941;48.698;9.310;2024-01-30T06:14:39;10.9;;;7.6;;
24867;SDS011;12941;48.698;9.310;2024-01-30T06:15:39;10.9;;;7.6;;
24867;SDS011;12941;48.698;9.310;2024-01-30T06:16:39;10.9;;;7.6;;
24867;SDS011;12941;48.698;9.310;2024-01-30T06:17:44;10.9;;;7.6;;
24867;SDS011;12941;48.698;9.310;2024-01-30T06:18:49;10.9;;;7.6;;
24867;SDS011;12941;48.698;9.310;2024-01-30T06:19:49;11.3;;;7.9;;
24867;SDS011;12941;48.698;9.310;2024-01-30T06:20:54;11.3;;;7.9;;
24867;SDS011;12941;48.698;9.310;2024-01-30T06:21:54;11.3;;;7.9;;
24867;SDS011;12941;48.698;9.310;2024-01-30T06:22:54;11.3;;;7.9;;
24867;SDS011;12941;48.698;9.310;2024-01-30T06:23:59;11.3;;;7.9;;
24867;SDS011;12941;48.698;9.310;2024-01-30T06:24:59;12.6;;;9;;